createdAt,value
2022-08-03T00:00:12.057Z,39
2022-08-03T00:06:03.493Z,39
2022-08-03T00:11:13.476Z,39
2022-08-03T00:16:44.313Z,39
2022-08-03T00:22:15.389Z,39
2022-08-03T00:27:45.150Z,39
2022-08-03T00:33:15.780Z,39
2022-08-03T00:38:46.350Z,39
2022-08-03T00:44:16.935Z,39
2022-08-03T00:49:47.553Z,39
2022-08-03T00:55:18.360Z,39
2022-08-03T01:00:48.173Z,39
2022-08-03T01:06:18.827Z,39
2022-08-03T01:12:00.879Z,39
2022-08-03T01:17:20.004Z,39
2022-08-03T01:22:50.612Z,39
2022-08-03T01:28:21.226Z,39
2022-08-03T01:33:51.787Z,39.5
2022-08-03T01:39:22.397Z,39.5
2022-08-03T01:44:53.005Z,39.5
2022-08-03T01:50:22.797Z,39.5
2022-08-03T01:55:53.368Z,39.5
2022-08-03T02:01:24.015Z,39.5
2022-08-03T02:06:59.814Z,39.5
2022-08-03T02:12:25.192Z,39.5
2022-08-03T02:17:55.957Z,39.5
2022-08-03T02:23:26.793Z,39.5
2022-08-03T02:28:57.658Z,39.5
2022-08-03T02:34:27.520Z,39.5
2022-08-03T02:39:58.115Z,39.5
2022-08-03T02:45:28.752Z,39.5
2022-08-03T02:50:59.617Z,39.5
2022-08-03T02:56:29.973Z,39.5
2022-08-03T03:02:00.744Z,39.5
2022-08-03T03:07:34.660Z,40
2022-08-03T03:13:02.585Z,40
2022-08-03T03:18:32.262Z,40
2022-08-03T03:24:02.865Z,40
2022-08-03T03:29:39.182Z,40
2022-08-03T03:35:04.198Z,40
2022-08-03T03:40:34.798Z,40
2022-08-03T03:46:05.382Z,40
2022-08-03T03:51:35.999Z,40
2022-08-03T03:57:06.584Z,40
2022-08-03T04:02:37.175Z,40
2022-08-03T04:08:07.792Z,40
2022-08-03T04:13:37.599Z,40
2022-08-03T04:19:08.172Z,40
2022-08-03T04:24:38.798Z,40
2022-08-03T04:30:09.400Z,40
2022-08-03T04:36:01.341Z,40
2022-08-03T04:41:10.783Z,40
2022-08-03T04:46:41.444Z,40
2022-08-03T04:52:12.293Z,40
2022-08-03T04:57:42.403Z,40
2022-08-03T05:03:23.575Z,40
2022-08-03T05:08:47.115Z,40
2022-08-03T05:14:15.099Z,40
2022-08-03T05:19:45.929Z,40
2022-08-03T05:25:19.820Z,38.5
2022-08-03T05:30:46.915Z,38
2022-08-03T05:36:17.756Z,38
2022-08-03T05:41:48.588Z,38
2022-08-03T05:47:19.440Z,38.5
2022-08-03T05:52:50.396Z,38.5
2022-08-03T05:58:20.366Z,38.5
2022-08-03T06:03:51.254Z,38.5
2022-08-03T06:09:21.066Z,38.5
2022-08-03T06:14:51.661Z,38.5
2022-08-03T06:20:22.245Z,39
2022-08-03T06:25:52.834Z,39
2022-08-03T06:31:23.446Z,39
2022-08-03T06:36:57.314Z,39
2022-08-03T06:42:25.051Z,39
2022-08-03T06:47:55.867Z,39.5
2022-08-03T06:53:26.064Z,39.5
2022-08-03T06:58:56.222Z,39.5
2022-08-03T07:04:26.554Z,39
2022-08-03T07:09:58.292Z,39
2022-08-03T07:15:53.822Z,39
2022-08-03T07:20:58.313Z,39
2022-08-03T07:26:28.927Z,38.5
2022-08-03T07:31:59.907Z,36.5
2022-08-03T07:37:29.511Z,35
2022-08-03T07:43:00.133Z,33.5
2022-08-03T07:48:30.717Z,32.5
2022-08-03T07:54:01.322Z,32
2022-08-03T07:59:56.357Z,31.5
2022-08-03T08:05:05.652Z,31
2022-08-03T08:10:33.654Z,31
2022-08-03T08:16:03.709Z,30.5
2022-08-03T08:22:40.424Z,30.5
2022-08-03T08:28:31.260Z,30.5
2022-08-03T08:34:03.189Z,29.5
2022-08-03T08:39:12.241Z,29
2022-08-03T08:44:42.945Z,28.5
2022-08-03T08:50:24.788Z,28.5
2022-08-03T08:55:59.976Z,28.5
2022-08-03T09:01:14.842Z,28.5
2022-08-03T09:07:04.432Z,28
2022-08-03T09:12:40.611Z,28
2022-08-03T09:17:50.918Z,28
2022-08-03T09:23:51.583Z,28.5
2022-08-03T09:28:59.988Z,29.5
2022-08-03T09:34:18.077Z,30.5
2022-08-03T09:39:48.615Z,31
2022-08-03T09:45:19.257Z,31.5
2022-08-03T09:50:58.511Z,32
2022-08-03T09:56:33.495Z,33.5
2022-08-03T10:01:51.261Z,35
2022-08-03T10:07:22.112Z,36.5
2022-08-03T10:12:52.983Z,36.5
2022-08-03T10:18:22.948Z,38
2022-08-03T10:23:53.569Z,38.5
2022-08-03T10:29:24.205Z,39
2022-08-03T10:35:00.234Z,39.5
2022-08-03T10:40:47.665Z,39.5
2022-08-03T10:47:02.306Z,40
2022-08-03T10:52:40.901Z,40.5
2022-08-03T10:58:07.951Z,40.5
2022-08-03T11:03:34.660Z,41
2022-08-03T11:09:05.230Z,41
2022-08-03T11:14:35.793Z,41
2022-08-03T11:20:06.422Z,41.5
2022-08-03T11:25:54.988Z,41.5
2022-08-03T11:31:08.084Z,41.5
2022-08-03T11:36:38.965Z,42
2022-08-03T11:42:09.017Z,42
2022-08-03T11:47:50.323Z,42
2022-08-03T11:53:10.222Z,42.5
2022-08-03T11:59:16.631Z,42
2022-08-03T12:04:11.448Z,42.5
2022-08-03T12:09:42.195Z,42.5
2022-08-03T12:15:13.063Z,42.5
2022-08-03T12:20:43.895Z,42.5
2022-08-03T12:26:13.755Z,42.5
2022-08-03T12:31:44.378Z,43
2022-08-03T12:37:21.754Z,42.5
2022-08-03T12:42:45.563Z,42.5
2022-08-03T12:48:16.251Z,42.5
2022-08-03T12:53:46.960Z,42.5
2022-08-03T12:59:17.861Z,42.5
2022-08-03T13:04:48.765Z,42.5
2022-08-03T13:10:18.521Z,42.5
2022-08-03T13:15:49.122Z,42.5
2022-08-03T13:21:19.745Z,42.5
2022-08-03T13:26:49.350Z,42.5
2022-08-03T13:32:19.930Z,42.5
2022-08-03T13:37:50.572Z,42.5
2022-08-03T13:43:21.124Z,42
2022-08-03T13:48:51.718Z,42
2022-08-03T13:54:22.323Z,42
2022-08-03T13:59:52.933Z,42
2022-08-03T14:05:22.559Z,42
2022-08-03T14:10:53.167Z,42
2022-08-03T14:16:23.759Z,42
2022-08-03T14:22:06.184Z,42
2022-08-03T14:27:25.000Z,42
2022-08-03T14:33:00.456Z,42
2022-08-03T14:38:26.638Z,42
2022-08-03T14:44:01.483Z,42
2022-08-03T14:50:36.171Z,42
2022-08-03T14:54:58.138Z,42
2022-08-03T15:00:28.743Z,42
2022-08-03T15:05:59.346Z,42.5
2022-08-03T15:11:29.931Z,42
2022-08-03T15:17:00.785Z,42
2022-08-03T15:22:34.738Z,42
2022-08-03T15:28:04.017Z,42
2022-08-03T15:33:32.273Z,42
2022-08-03T15:39:02.941Z,42
2022-08-03T15:44:33.488Z,42
2022-08-03T15:50:09.214Z,42
2022-08-03T15:55:33.674Z,42
2022-08-03T16:01:03.358Z,42
2022-08-03T16:06:35.158Z,42
2022-08-03T16:12:04.478Z,42
2022-08-03T16:17:35.104Z,42
2022-08-03T16:23:10.678Z,42
2022-08-03T16:28:36.316Z,41.5
2022-08-03T16:34:06.948Z,41.5
2022-08-03T16:39:36.688Z,41.5
2022-08-03T16:45:07.153Z,42
2022-08-03T16:50:37.755Z,42.5
2022-08-03T16:56:10.587Z,42
2022-08-03T17:01:39.042Z,42
2022-08-03T17:07:09.678Z,42
2022-08-03T17:12:40.507Z,42
2022-08-03T17:18:11.384Z,42
2022-08-03T17:23:41.161Z,42
2022-08-03T17:29:12.776Z,42
2022-08-03T17:34:42.397Z,42
2022-08-03T17:40:17.973Z,42
2022-08-03T17:45:52.704Z,42.5
2022-08-03T17:56:46.427Z,42
2022-08-03T18:02:25.170Z,42.5
2022-08-03T18:07:46.192Z,42.5
2022-08-03T18:13:17.036Z,42
2022-08-03T18:18:48.628Z,42.5
2022-08-03T18:24:18.768Z,42
2022-08-03T18:29:49.603Z,42
2022-08-03T18:35:19.674Z,42.5
2022-08-03T18:40:49.367Z,42
2022-08-03T18:46:19.884Z,42
2022-08-03T18:51:50.490Z,42.5
2022-08-03T18:57:21.101Z,42
2022-08-03T19:02:51.704Z,42
2022-08-03T19:08:22.313Z,42
2022-08-03T19:13:52.919Z,42
2022-08-03T19:19:24.669Z,42
2022-08-03T19:24:54.295Z,41.5
2022-08-03T19:30:26.286Z,41.5
2022-08-03T19:35:57.296Z,41.5
2022-08-03T19:41:24.407Z,42
2022-08-03T19:46:55.010Z,41.5
2022-08-03T19:52:31.257Z,41.5
2022-08-03T19:57:57.216Z,41.5
2022-08-03T20:03:26.783Z,41
2022-08-03T20:08:57.370Z,41.5
2022-08-03T20:14:27.991Z,41
2022-08-03T20:19:58.688Z,41
2022-08-03T20:25:38.349Z,41
2022-08-03T20:30:59.881Z,41
2022-08-03T20:36:29.739Z,41
2022-08-03T20:42:00.343Z,41
2022-08-03T20:47:30.931Z,41
2022-08-03T20:53:02.731Z,41
2022-08-03T20:58:32.142Z,41
2022-08-03T21:04:04.491Z,41
2022-08-03T21:09:40.130Z,41
2022-08-03T21:13:04.520Z,42.5
2022-08-03T21:15:04.533Z,41
2022-08-03T21:20:34.650Z,41
2022-08-03T21:26:05.250Z,41
2022-08-03T21:31:35.864Z,41
2022-08-03T21:37:06.453Z,41
2022-08-03T21:42:37.047Z,41
2022-08-03T21:48:07.679Z,41
2022-08-03T21:54:03.812Z,41
2022-08-03T21:59:09.412Z,41
2022-08-03T22:04:55.038Z,41
2022-08-03T22:10:10.020Z,41
2022-08-03T22:15:40.601Z,41
2022-08-03T22:21:11.183Z,41
2022-08-03T22:26:41.784Z,41
2022-08-03T22:32:12.509Z,41
2022-08-03T22:37:43.471Z,41
2022-08-03T22:43:14.341Z,40.5
2022-08-03T22:48:44.412Z,40.5
2022-08-03T22:54:15.000Z,40.5
2022-08-03T22:59:45.735Z,40.5
2022-08-03T23:06:02.509Z,40.5
2022-08-03T23:10:47.410Z,40.5
2022-08-03T23:16:28.601Z,40.5
2022-08-03T23:21:53.720Z,40.5
2022-08-03T23:27:18.886Z,40.5
2022-08-03T23:32:54.794Z,40.5
2022-08-03T23:38:22.740Z,40.5
2022-08-03T23:43:54.082Z,40.5
2022-08-03T23:49:21.816Z,40.5
2022-08-03T23:54:51.671Z,40.5
